Time;durP1;ratioP1;P1;durP2;ratioP2;P2;SDS_P1;SDS_P2;PMS_P1;PMS_P2;Temp;Humidity;BMP_temperature;BMP_pressure;BME280_temperature;BME280_humidity;BME280_pressure;Samples;Min_cycle;Max_cycle;Signal;HPM_P1;HPM_P2
2022/09/21 00:01:08;;;;;;;6.35;1.83;;;8.30;99.90;;;;;;6176079;23;20005;-85
2022/09/21 00:03:34;;;;;;;2.70;1.25;;;8.30;99.90;;;;;;6178105;23;20076;-85
2022/09/21 00:06:10;;;;;;;2.00;1.15;;;8.30;99.90;;;;;;6175863;23;20005;-87
2022/09/21 00:08:36;;;;;;;10.13;1.40;;;8.40;99.90;;;;;;6176372;23;20149;-86
2022/09/21 00:11:02;;;;;;;4.55;1.10;;;8.40;99.90;;;;;;6176484;23;20072;-83
2022/09/21 00:13:28;;;;;;;2.47;0.98;;;8.30;99.90;;;;;;6177447;23;19998;-84
2022/09/21 00:15:57;;;;;;;3.55;1.58;;;8.30;99.90;;;;;;6177708;23;20124;-85
2022/09/21 00:18:26;;;;;;;2.50;1.27;;;8.30;99.90;;;;;;6177576;23;20084;-86
2022/09/21 00:20:52;;;;;;;6.63;1.20;;;8.30;99.90;;;;;;6176916;23;20080;-83
2022/09/21 00:23:18;;;;;;;1.80;0.98;;;8.20;99.90;;;;;;6178182;23;20024;-86
2022/09/21 00:25:44;;;;;;;2.55;1.40;;;8.20;99.90;;;;;;6177499;23;20302;-86
2022/09/21 00:28:09;;;;;;;1.98;0.90;;;8.20;99.90;;;;;;6178456;23;20029;-87
2022/09/21 00:30:36;;;;;;;1.48;1.10;;;8.10;99.90;;;;;;6177496;23;20029;-85
2022/09/21 00:33:02;;;;;;;2.50;1.25;;;8.10;99.90;;;;;;6178194;23;19997;-86
2022/09/21 00:35:27;;;;;;;2.13;1.20;;;8.10;99.90;;;;;;6176916;23;20053;-85
2022/09/21 00:37:53;;;;;;;3.75;1.33;;;8.10;99.90;;;;;;6178667;23;20093;-84
2022/09/21 00:40:19;;;;;;;3.03;1.05;;;8.00;99.90;;;;;;6178637;23;20007;-85
2022/09/21 00:42:45;;;;;;;3.03;1.63;;;8.00;99.90;;;;;;6177187;23;20084;-87
2022/09/21 00:45:19;;;;;;;3.10;1.67;;;8.00;99.90;;;;;;6178269;23;20084;-86
2022/09/21 00:47:49;;;;;;;2.43;1.20;;;7.90;99.90;;;;;;6176921;23;20012;-86
2022/09/21 00:50:18;;;;;;;9.43;1.75;;;7.90;99.90;;;;;;6177764;23;20665;-87
2022/09/21 00:52:50;;;;;;;6.82;1.27;;;7.90;99.90;;;;;;6178363;23;20008;-86
2022/09/21 00:55:36;;;;;;;4.47;1.75;;;7.90;99.90;;;;;;6178468;23;20091;-86
2022/09/21 00:58:08;;;;;;;5.95;1.38;;;7.90;99.90;;;;;;6178313;23;20005;-86
2022/09/21 01:00:35;;;;;;;6.20;1.75;;;7.90;99.90;;;;;;6177191;23;19998;-86
2022/09/21 01:03:00;;;;;;;3.35;1.10;;;7.80;99.90;;;;;;6178396;23;20009;-86
2022/09/21 01:05:27;;;;;;;2.15;1.50;;;7.80;99.90;;;;;;6177800;23;20086;-86
2022/09/21 01:07:55;;;;;;;7.65;1.90;;;7.90;99.90;;;;;;6177000;23;20438;-86
2022/09/21 01:10:21;;;;;;;5.13;2.22;;;7.90;99.90;;;;;;6177141;23;20002;-85
2022/09/21 01:13:09;;;;;;;5.93;2.53;;;7.90;99.90;;;;;;6176546;23;20082;-86
2022/09/21 01:15:38;;;;;;;3.40;1.80;;;7.90;99.90;;;;;;6177366;23;20322;-82
2022/09/21 01:18:10;;;;;;;6.65;2.10;;;7.90;99.90;;;;;;6179353;23;20312;-85
2022/09/21 01:20:39;;;;;;;6.97;2.30;;;8.00;99.90;;;;;;6177314;23;20013;-82
2022/09/21 01:23:46;;;;;;;6.82;1.67;;;8.00;99.90;;;;;;6177986;23;20035;-84
2022/09/21 01:26:39;;;;;;;7.40;2.13;;;8.00;99.90;;;;;;6210302;23;20008;-85
2022/09/21 01:29:30;;;;;;;4.97;1.92;;;8.10;99.90;;;;;;6177943;23;20075;-85
2022/09/21 01:32:15;;;;;;;4.80;2.00;;;8.10;99.90;;;;;;6176481;23;20047;-87
2022/09/21 01:34:53;;;;;;;5.45;1.63;;;8.10;99.90;;;;;;6177111;23;20028;-86
2022/09/21 01:37:48;;;;;;;4.22;1.55;;;8.00;99.90;;;;;;6177117;23;20005;-86
2022/09/21 01:40:22;;;;;;;3.20;1.40;;;8.00;99.90;;;;;;6178059;23;20004;-85
2022/09/21 01:42:50;;;;;;;2.00;1.10;;;8.00;99.90;;;;;;6176975;23;20017;-86
2022/09/21 01:45:20;;;;;;;5.30;1.48;;;8.00;99.90;;;;;;6178267;23;20035;-83
2022/09/21 01:47:48;;;;;;;1.25;1.13;;;8.00;99.90;;;;;;6177780;23;20072;-87
2022/09/21 01:50:17;;;;;;;3.10;1.45;;;7.90;99.90;;;;;;6177779;23;20001;-84
2022/09/21 01:52:52;;;;;;;2.97;1.40;;;7.90;99.90;;;;;;6177611;23;20011;-86
2022/09/21 01:55:27;;;;;;;1.27;1.05;;;7.80;99.90;;;;;;6177850;23;20028;-87
2022/09/21 01:58:01;;;;;;;3.47;1.45;;;7.80;99.90;;;;;;6176226;23;20009;-85
2022/09/21 02:00:29;;;;;;;2.47;1.40;;;7.80;99.90;;;;;;6178260;23;20088;-85
2022/09/21 02:03:03;;;;;;;2.92;1.50;;;7.80;99.90;;;;;;6177344;23;20001;-86
2022/09/21 02:05:30;;;;;;;8.10;2.00;;;7.70;99.90;;;;;;6177208;23;20005;-86
2022/09/21 02:07:57;;;;;;;4.78;1.60;;;7.70;99.90;;;;;;6176786;23;20438;-86
2022/09/21 02:10:29;;;;;;;3.45;1.48;;;7.70;99.90;;;;;;6178111;23;19998;-85
2022/09/21 02:12:59;;;;;;;2.75;1.42;;;7.60;99.90;;;;;;6176597;23;20083;-85
2022/09/21 02:15:37;;;;;;;4.63;1.20;;;7.60;99.90;;;;;;6177546;23;20009;-85
2022/09/21 02:18:23;;;;;;;4.97;1.70;;;7.60;99.90;;;;;;6175858;23;20332;-86
2022/09/21 02:20:55;;;;;;;;;;;7.60;99.90;;;;;;6187881;23;20482;-82
2022/09/21 02:23:26;;;;;;;2.25;1.23;;;7.50;99.90;;;;;;6177999;23;19905;-86
2022/09/21 02:26:00;;;;;;;5.07;1.75;;;7.50;99.90;;;;;;6177769;23;20105;-85
2022/09/21 02:28:33;;;;;;;6.20;1.92;;;7.50;99.90;;;;;;6178347;23;20001;-85
2022/09/21 02:31:14;;;;;;;3.58;1.30;;;7.50;99.90;;;;;;6178583;23;20036;-84
2022/09/21 02:33:59;;;;;;;4.75;1.50;;;7.40;99.90;;;;;;6178437;23;20069;-85
2022/09/21 02:36:43;;;;;;;6.45;2.13;;;7.40;99.90;;;;;;6177876;23;20013;-84
2022/09/21 02:39:21;;;;;;;6.10;2.20;;;7.40;99.90;;;;;;6178088;23;20315;-85
2022/09/21 02:42:06;;;;;;;2.42;1.40;;;7.40;99.90;;;;;;6176412;23;20335;-85
2022/09/21 02:44:39;;;;;;;6.72;1.60;;;7.50;99.90;;;;;;6178956;23;20084;-85
2022/09/21 02:47:17;;;;;;;5.03;1.65;;;7.50;99.90;;;;;;6178280;23;19997;-85
2022/09/21 02:49:53;;;;;;;5.63;1.92;;;7.50;99.90;;;;;;6178743;23;20142;-85
2022/09/21 02:52:20;;;;;;;7.50;1.65;;;7.50;99.90;;;;;;6178211;23;20004;-85
2022/09/21 02:54:49;;;;;;;2.30;1.23;;;7.50;99.90;;;;;;6178807;23;20005;-84
2022/09/21 02:57:17;;;;;;;6.15;2.03;;;7.50;99.90;;;;;;6178967;23;20005;-85
2022/09/21 02:59:43;;;;;;;2.33;1.50;;;7.50;99.90;;;;;;6178883;22;19997;-85
2022/09/21 03:02:11;;;;;;;3.08;1.75;;;7.50;99.90;;;;;;6178360;23;20001;-83
2022/09/21 03:04:40;;;;;;;2.67;1.58;;;7.50;99.90;;;;;;6179023;23;20006;-83
2022/09/21 03:07:08;;;;;;;5.40;1.40;;;7.50;99.90;;;;;;6178264;23;20327;-85
2022/09/21 03:09:35;;;;;;;3.95;1.77;;;7.50;99.90;;;;;;6179184;23;20037;-85
2022/09/21 03:12:01;;;;;;;1.85;1.55;;;7.50;99.90;;;;;;6177448;23;20001;-85
2022/09/21 03:14:26;;;;;;;3.78;1.60;;;7.40;99.90;;;;;;6177892;23;20009;-84
2022/09/21 03:16:52;;;;;;;4.63;1.85;;;7.40;99.90;;;;;;6178508;23;20441;-83
2022/09/21 03:19:18;;;;;;;5.22;1.90;;;7.40;99.90;;;;;;6178562;23;20002;-85
2022/09/21 03:21:44;;;;;;;4.68;1.73;;;7.40;99.90;;;;;;6178264;23;20016;-84
2022/09/21 03:24:09;;;;;;;4.40;2.20;;;7.40;99.90;;;;;;6178520;23;20012;-86
2022/09/21 03:26:35;;;;;;;5.38;1.90;;;7.40;99.90;;;;;;6178488;23;20050;-82
2022/09/21 03:29:02;;;;;;;1.70;1.40;;;7.40;99.90;;;;;;6178293;23;20051;-83
2022/09/21 03:31:28;;;;;;;3.78;1.40;;;7.40;99.90;;;;;;6177606;23;19997;-85
2022/09/21 03:33:54;;;;;;;3.40;1.85;;;7.40;99.90;;;;;;6178554;23;20005;-86
2022/09/21 03:36:19;;;;;;;6.18;1.85;;;7.40;99.90;;;;;;6177531;23;20032;-85
2022/09/21 03:38:45;;;;;;;1.30;1.25;;;7.40;99.90;;;;;;6178640;23;20044;-85
2022/09/21 03:41:11;;;;;;;7.45;1.70;;;7.40;99.90;;;;;;6178102;23;20356;-84
2022/09/21 03:43:36;;;;;;;2.28;1.17;;;7.40;99.90;;;;;;6179517;23;20458;-86
2022/09/21 03:46:02;;;;;;;2.40;1.60;;;7.30;99.90;;;;;;6177423;23;20077;-85
2022/09/21 03:48:27;;;;;;;3.13;1.70;;;7.30;99.90;;;;;;6177415;23;20008;-86
2022/09/21 03:50:55;;;;;;;4.07;1.50;;;7.30;99.90;;;;;;6178174;23;20401;-85
2022/09/21 03:53:21;;;;;;;4.82;1.50;;;7.30;99.90;;;;;;6177896;23;20456;-84
2022/09/21 03:55:46;;;;;;;2.72;1.58;;;7.20;99.90;;;;;;6178689;23;20005;-85
2022/09/21 03:58:12;;;;;;;2.75;1.85;;;7.30;99.90;;;;;;6178061;23;20005;-85
2022/09/21 04:00:38;;;;;;;3.45;1.42;;;7.20;99.90;;;;;;6176181;23;20070;-85
2022/09/21 04:03:04;;;;;;;7.50;2.47;;;7.20;99.90;;;;;;6177079;23;20014;-85
2022/09/21 04:05:29;;;;;;;4.53;2.05;;;7.20;99.90;;;;;;6179149;23;20009;-86
2022/09/21 04:07:55;;;;;;;9.55;2.85;;;7.10;99.90;;;;;;6177766;23;20416;-85
2022/09/21 04:10:25;;;;;;;7.28;2.40;;;7.10;99.90;;;;;;6179560;23;20001;-85
2022/09/21 04:12:55;;;;;;;6.10;2.63;;;7.10;99.90;;;;;;6177499;23;20065;-85
2022/09/21 04:15:22;;;;;;;8.27;2.38;;;7.10;99.90;;;;;;6178590;23;20087;-84
2022/09/21 04:17:50;;;;;;;4.68;1.75;;;7.10;99.90;;;;;;6176387;23;20009;-86
2022/09/21 04:20:19;;;;;;;5.32;2.13;;;7.00;99.90;;;;;;6177800;23;20012;-83
2022/09/21 04:22:47;;;;;;;3.38;1.60;;;7.00;99.90;;;;;;6176590;23;20485;-85
2022/09/21 04:25:14;;;;;;;7.85;2.20;;;7.00;99.90;;;;;;6178998;23;20012;-86
2022/09/21 04:27:40;;;;;;;4.20;2.08;;;7.00;99.90;;;;;;6176307;23;20004;-85
2022/09/21 04:30:07;;;;;;;4.53;2.08;;;7.00;99.90;;;;;;6177164;23;20001;-84
2022/09/21 04:32:33;;;;;;;3.00;1.45;;;7.00;99.90;;;;;;6176394;23;20053;-85
2022/09/21 04:34:59;;;;;;;2.65;1.50;;;6.90;99.90;;;;;;6179103;23;20116;-86
2022/09/21 04:37:25;;;;;;;8.93;1.92;;;6.90;99.90;;;;;;6176972;23;20016;-85
2022/09/21 04:39:50;;;;;;;7.88;3.13;;;6.90;99.90;;;;;;6178130;23;19997;-86
2022/09/21 04:42:16;;;;;;;6.75;3.08;;;6.90;99.90;;;;;;6173848;23;20103;-85
2022/09/21 04:44:42;;;;;;;4.60;2.30;;;6.80;99.90;;;;;;6175234;23;20001;-87
2022/09/21 04:47:07;;;;;;;8.50;1.77;;;6.80;99.90;;;;;;6172555;23;20013;-85
2022/09/21 04:49:34;;;;;;;6.72;2.30;;;6.80;99.90;;;;;;6176838;23;20001;-85
2022/09/21 04:52:02;;;;;;;5.65;1.98;;;6.70;99.90;;;;;;6174863;23;20005;-86
2022/09/21 04:54:28;;;;;;;7.07;2.28;;;6.80;99.90;;;;;;6175948;23;20009;-85
2022/09/21 04:56:53;;;;;;;5.53;1.38;;;6.70;99.90;;;;;;6172690;23;20536;-82
2022/09/21 04:59:19;;;;;;;8.70;3.15;;;6.70;99.90;;;;;;6176831;23;20005;-85
2022/09/21 05:01:44;;;;;;;5.30;1.58;;;6.70;99.90;;;;;;6177221;23;20008;-85
2022/09/21 05:04:10;;;;;;;6.65;2.15;;;6.60;99.90;;;;;;6176950;23;20012;-87
2022/09/21 05:06:35;;;;;;;7.85;2.10;;;6.60;99.90;;;;;;6176171;23;20004;-84
2022/09/21 05:11:45;;;;;;;3.95;1.45;;;6.50;99.90;;;;;;6177907;23;20035;-86
2022/09/21 05:14:11;;;;;;;7.20;1.25;;;6.50;99.90;;;;;;6178928;23;19997;-85
2022/09/21 05:16:37;;;;;;;2.58;1.65;;;6.60;99.90;;;;;;6177629;23;20013;-84
2022/09/21 05:19:03;;;;;;;5.10;2.28;;;6.60;99.90;;;;;;6178591;23;20015;-87
2022/09/21 05:21:30;;;;;;;4.78;2.08;;;6.60;99.90;;;;;;6177217;23;20002;-85
2022/09/21 05:23:56;;;;;;;3.53;2.47;;;6.60;99.90;;;;;;6178199;23;20008;-86
2022/09/21 05:26:22;;;;;;;3.25;1.30;;;6.60;99.90;;;;;;6178696;23;19997;-85
2022/09/21 05:28:47;;;;;;;10.07;2.35;;;6.70;99.90;;;;;;6177003;23;20422;-85
2022/09/21 05:31:16;;;;;;;3.00;1.02;;;6.70;99.90;;;;;;6177353;23;20001;-84
2022/09/21 05:33:49;;;;;;;11.73;2.00;;;6.70;99.90;;;;;;6176613;23;20005;-84
2022/09/21 05:36:34;;;;;;;7.10;1.90;;;6.70;99.90;;;;;;6177577;23;20017;-86
2022/09/21 05:39:00;;;;;;;4.30;1.87;;;6.70;99.90;;;;;;6177755;23;20338;-86
2022/09/21 05:41:26;;;;;;;6.07;1.88;;;6.70;99.90;;;;;;6176528;23;21408;-85
2022/09/21 05:43:52;;;;;;;6.78;1.50;;;6.70;99.90;;;;;;6173871;23;20016;-86
2022/09/21 05:46:41;;;;;;;11.50;2.08;;;6.70;99.90;;;;;;6178820;23;20354;-85
2022/09/21 05:49:24;;;;;;;4.45;1.60;;;6.80;99.90;;;;;;6182896;22;20008;-85
2022/09/21 05:52:08;;;;;;;4.60;1.88;;;6.80;99.90;;;;;;6177492;23;19997;-84
2022/09/21 05:55:02;;;;;;;6.97;1.67;;;6.80;99.90;;;;;;6178659;23;20090;-86
2022/09/21 05:57:42;;;;;;;6.18;1.63;;;6.80;99.90;;;;;;6176981;23;20059;-86
2022/09/21 06:00:18;;;;;;;12.63;2.80;;;6.90;99.90;;;;;;6176954;23;20006;-86
2022/09/21 06:03:08;;;;;;;10.48;1.98;;;6.90;99.90;;;;;;6177065;23;20147;-86
2022/09/21 06:05:34;;;;;;;8.52;3.20;;;7.00;99.90;;;;;;6177917;23;20013;-84
2022/09/21 06:08:00;;;;;;;7.43;3.10;;;7.00;99.90;;;;;;6176896;23;20514;-85
2022/09/21 06:10:32;;;;;;;5.40;3.05;;;7.10;99.90;;;;;;6178479;23;20084;-86
2022/09/21 06:12:57;;;;;;;12.43;3.10;;;7.20;99.90;;;;;;6177015;23;20460;-83
2022/09/21 06:15:23;;;;;;;7.60;3.15;;;7.20;99.90;;;;;;6178331;23;20025;-85
2022/09/21 06:17:48;;;;;;;12.73;4.00;;;7.30;99.90;;;;;;6177339;23;20036;-86
2022/09/21 06:20:14;;;;;;;5.82;2.88;;;7.40;99.90;;;;;;6178448;23;20023;-86
2022/09/21 06:22:39;;;;;;;5.40;2.63;;;7.40;99.90;;;;;;6177150;23;20005;-85
2022/09/21 06:25:06;;;;;;;9.30;2.65;;;7.50;99.90;;;;;;6177862;23;20001;-86
2022/09/21 06:27:31;;;;;;;5.45;2.53;;;7.60;99.90;;;;;;6176983;23;19997;-87
2022/09/21 06:29:57;;;;;;;14.07;3.90;;;7.60;99.90;;;;;;6177704;23;20005;-86
2022/09/21 06:32:22;;;;;;;6.43;2.40;;;7.70;99.90;;;;;;6177357;23;20005;-86
2022/09/21 06:34:48;;;;;;;4.63;1.92;;;7.80;99.90;;;;;;6178220;23;20059;-86
2022/09/21 06:37:14;;;;;;;3.75;1.63;;;7.90;99.90;;;;;;6176734;23;20028;-86
2022/09/21 06:39:40;;;;;;;5.38;1.83;;;7.90;99.90;;;;;;6177599;23;20005;-87
2022/09/21 06:42:05;;;;;;;6.38;1.40;;;8.00;99.90;;;;;;6175072;23;20469;-87
2022/09/21 06:44:31;;;;;;;14.55;2.88;;;8.10;99.90;;;;;;6178734;23;20005;-87
2022/09/21 06:46:57;;;;;;;6.93;1.85;;;8.10;99.90;;;;;;6177414;23;19997;-87
2022/09/21 06:49:22;;;;;;;12.10;2.10;;;8.30;99.90;;;;;;6178162;23;20016;-86
2022/09/21 06:51:48;;;;;;;23.05;2.35;;;8.40;99.90;;;;;;6177608;23;20005;-85
2022/09/21 06:54:14;;;;;;;14.57;2.50;;;8.60;99.90;;;;;;6177920;23;20005;-87
2022/09/21 06:56:42;;;;;;;17.77;2.58;;;8.80;99.90;;;;;;6178357;23;20005;-87
2022/09/21 06:59:07;;;;;;;13.80;2.25;;;9.00;99.90;;;;;;6177502;23;20005;-87
2022/09/21 07:01:33;;;;;;;13.75;4.22;;;9.20;99.90;;;;;;6178660;23;20083;-87
2022/09/21 07:03:58;;;;;;;17.40;2.00;;;9.40;99.90;;;;;;6177446;23;20016;-87
2022/09/21 07:06:24;;;;;;;14.20;2.83;;;9.60;99.90;;;;;;6178332;23;20006;-87
2022/09/21 07:08:52;;;;;;;14.30;2.00;;;9.70;99.90;;;;;;6177164;23;20002;-84
2022/09/21 07:11:19;;;;;;;13.13;2.47;;;9.80;99.90;;;;;;6179250;23;20009;-88
2022/09/21 07:13:45;;;;;;;10.15;2.25;;;10.00;99.90;;;;;;6178871;23;20001;-87
2022/09/21 07:16:11;;;;;;;11.35;2.13;;;10.00;99.90;;;;;;6179737;23;20464;-88
2022/09/21 07:18:39;;;;;;;10.98;2.88;;;10.10;99.90;;;;;;6178610;23;20013;-89
2022/09/21 07:21:07;;;;;;;16.10;2.55;;;10.30;99.90;;;;;;6179818;23;20024;-88
2022/09/21 07:23:33;;;;;;;13.77;2.78;;;10.30;99.90;;;;;;6178960;23;20005;-87
2022/09/21 07:26:06;;;;;;;10.30;2.10;;;10.40;99.90;;;;;;6179157;23;20438;-89
2022/09/21 07:28:31;;;;;;;15.55;2.83;;;10.50;99.90;;;;;;6178660;23;20005;-88
2022/09/21 07:30:57;;;;;;;11.63;2.50;;;10.60;99.90;;;;;;6179493;23;20448;-88
2022/09/21 07:33:24;;;;;;;14.35;2.42;;;10.70;99.90;;;;;;6176893;23;20453;-87
2022/09/21 07:35:55;;;;;;;14.77;2.60;;;10.70;99.90;;;;;;6179137;23;20035;-86
2022/09/21 07:38:21;;;;;;;13.05;2.13;;;10.80;99.90;;;;;;6178454;23;20303;-85
2022/09/21 07:40:47;;;;;;;14.95;3.28;;;10.80;99.90;;;;;;6179393;23;20009;-86
2022/09/21 07:43:13;;;;;;;15.43;2.45;;;10.80;99.90;;;;;;6178118;23;20020;-88
2022/09/21 07:45:39;;;;;;;8.82;2.17;;;10.80;99.90;;;;;;6179487;23;20009;-88
2022/09/21 07:48:05;;;;;;;9.55;2.00;;;11.00;99.90;;;;;;6178471;23;20059;-88
2022/09/21 07:50:33;;;;;;;15.70;3.20;;;11.00;99.90;;;;;;6179632;23;20005;-86
2022/09/21 07:52:59;;;;;;;13.65;2.33;;;11.10;99.90;;;;;;6178543;23;20005;-88
2022/09/21 07:55:25;;;;;;;6.78;2.10;;;11.20;99.90;;;;;;6179154;23;20080;-88
2022/09/21 08:00:36;;;;;;;14.20;2.78;;;11.20;99.90;;;;;;6175539;23;20015;-85
2022/09/21 08:03:02;;;;;;;16.50;2.63;;;11.30;99.90;;;;;;6173694;23;20002;-89
2022/09/21 08:05:27;;;;;;;11.60;2.67;;;11.40;99.90;;;;;;6176063;23;20005;-87
2022/09/21 08:07:56;;;;;;;18.88;3.80;;;11.40;99.90;;;;;;6177524;23;20050;-88
2022/09/21 08:10:22;;;;;;;9.75;2.17;;;11.50;99.90;;;;;;6178511;23;19997;-88
2022/09/21 08:12:48;;;;;;;16.73;2.83;;;11.60;99.90;;;;;;6177690;23;20012;-90
2022/09/21 08:15:14;;;;;;;17.27;3.47;;;11.60;99.90;;;;;;6179209;23;20005;-87
2022/09/21 08:17:39;;;;;;;14.15;2.60;;;11.60;99.90;;;;;;6177667;23;20016;-89
2022/09/21 08:20:05;;;;;;;11.73;2.50;;;11.70;99.90;;;;;;6179187;23;20029;-88
2022/09/21 08:22:31;;;;;;;15.38;2.38;;;11.70;99.90;;;;;;6177061;23;20001;-89
2022/09/21 08:24:56;;;;;;;7.55;2.10;;;11.70;99.90;;;;;;6178348;23;20019;-89
2022/09/21 08:27:24;;;;;;;20.05;2.75;;;11.80;99.90;;;;;;6175654;23;20418;-86
2022/09/21 08:29:50;;;;;;;13.65;2.90;;;11.80;99.90;;;;;;6177484;23;20001;-86
2022/09/21 08:32:16;;;;;;;14.75;2.50;;;12.00;99.90;;;;;;6176797;23;20081;-88
2022/09/21 08:34:41;;;;;;;11.18;2.72;;;11.90;99.90;;;;;;6177578;23;20040;-88
2022/09/21 08:37:07;;;;;;;13.50;2.47;;;11.90;99.90;;;;;;6178356;23;20082;-90
2022/09/21 08:39:33;;;;;;;18.92;2.80;;;11.90;99.90;;;;;;6177325;23;20040;-90
2022/09/21 08:42:17;;;;;;;17.02;2.85;;;12.00;99.90;;;;;;6178121;23;20017;-89
2022/09/21 08:44:56;;;;;;;13.02;2.17;;;12.00;99.90;;;;;;6178731;23;20034;-89
2022/09/21 08:47:27;;;;;;;17.00;2.40;;;12.20;99.90;;;;;;6178327;23;20028;-89
2022/09/21 08:49:56;;;;;;;12.82;2.42;;;12.20;99.90;;;;;;6177146;23;20023;-88
2022/09/21 08:52:23;;;;;;;9.25;2.65;;;12.20;99.90;;;;;;6178532;23;20004;-88
2022/09/21 08:55:17;;;;;;;19.17;3.88;;;12.30;99.90;;;;;;6179252;23;20088;-88
2022/09/21 08:57:43;;;;;;;11.85;2.42;;;12.30;99.90;;;;;;6178121;23;20076;-90
2022/09/21 09:00:17;;;;;;;12.45;3.67;;;12.30;99.90;;;;;;6179276;23;20017;-90
2022/09/21 09:03:01;;;;;;;14.15;2.67;;;12.40;99.90;;;;;;6178103;23;20012;-91
2022/09/21 09:05:57;;;;;;;6.35;1.88;;;12.40;99.90;;;;;;6179310;23;20017;-90
2022/09/21 09:08:55;;;;;;;15.27;2.70;;;12.50;99.90;;;;;;6178229;23;20327;-90
2022/09/21 09:11:43;;;;;;;11.43;2.60;;;12.50;99.90;;;;;;6179112;23;20043;-92
2022/09/21 09:14:37;;;;;;;9.65;1.80;;;12.60;99.90;;;;;;6176782;23;20001;-91
2022/09/21 09:17:32;;;;;;;8.40;1.88;;;12.70;99.90;;;;;;6172009;23;20433;-91
2022/09/21 09:20:17;;;;;;;13.73;2.15;;;12.70;99.90;;;;;;6176442;23;20013;-93
2022/09/21 09:22:47;;;;;;;11.48;2.42;;;12.70;99.90;;;;;;6177224;23;20005;-93
2022/09/21 09:25:23;;;;;;;8.65;1.90;;;12.70;99.90;;;;;;6179265;23;20001;-93
2022/09/21 09:28:00;;;;;;;24.00;3.00;;;12.80;99.90;;;;;;6178215;23;20008;-91
2022/09/21 09:30:32;;;;;;;10.48;2.35;;;12.80;99.90;;;;;;6177728;23;20089;-93
2022/09/21 09:33:05;;;;;;;11.07;3.13;;;12.80;99.90;;;;;;6178438;23;20285;-92
2022/09/21 09:35:36;;;;;;;14.85;2.45;;;12.90;99.90;;;;;;6176136;23;20342;-89
2022/09/21 09:38:22;;;;;;;15.35;2.60;;;12.90;99.90;;;;;;6177377;23;20031;-92
2022/09/21 09:41:14;;;;;;;12.05;2.78;;;13.00;99.90;;;;;;6178534;23;20495;-89
2022/09/21 09:43:58;;;;;;;9.52;2.67;;;13.00;99.90;;;;;;6178528;23;20020;-92
2022/09/21 09:46:30;;;;;;;12.98;2.30;;;13.00;99.90;;;;;;6178084;23;20505;-91
2022/09/21 09:49:13;;;;;;;10.10;2.20;;;13.10;99.90;;;;;;6178269;23;20005;-92
2022/09/21 09:51:39;;;;;;;20.05;2.53;;;13.10;99.90;;;;;;6178428;23;20009;-92
2022/09/21 09:54:11;;;;;;;11.05;2.20;;;13.10;99.90;;;;;;6177896;23;19997;-88
2022/09/21 09:56:37;;;;;;;8.48;1.90;;;13.10;99.90;;;;;;6179104;23;20005;-89
2022/09/21 09:59:08;;;;;;;12.63;2.42;;;13.20;99.90;;;;;;6178172;23;20387;-91
2022/09/21 10:01:45;;;;;;;6.38;1.52;;;13.10;99.90;;;;;;6179250;23;20027;-91
2022/09/21 10:04:16;;;;;;;6.47;2.03;;;13.10;99.90;;;;;;6177379;23;20312;-92
2022/09/21 10:06:43;;;;;;;5.15;1.48;;;13.00;99.90;;;;;;6178762;23;20008;-91
2022/09/21 10:09:23;;;;;;;16.35;1.92;;;12.90;99.90;;;;;;6177327;23;20012;-93
2022/09/21 10:11:50;;;;;;;8.20;1.90;;;12.90;99.90;;;;;;6177141;23;19997;-93
2022/09/21 10:14:20;;;;;;;8.30;1.42;;;12.80;99.90;;;;;;6176331;23;20326;-91
2022/09/21 10:16:50;;;;;;;16.52;2.92;;;12.80;99.90;;;;;;6178817;23;20009;-91
2022/09/21 10:19:20;;;;;;;10.70;2.00;;;13.00;99.90;;;;;;6178069;23;20078;-91
2022/09/21 10:21:46;;;;;;;6.80;1.55;;;13.00;99.90;;;;;;6178069;23;20033;-92
2022/09/21 10:24:28;;;;;;;3.30;1.08;;;13.00;99.90;;;;;;6177835;23;20025;-86
2022/09/21 10:27:06;;;;;;;9.88;1.08;;;13.00;99.90;;;;;;6177851;23;20023;-91
2022/09/21 10:29:46;;;;;;;6.28;1.77;;;13.10;99.90;;;;;;6174768;23;20005;-89
2022/09/21 10:32:12;;;;;;;6.15;1.58;;;13.10;99.90;;;;;;6175504;23;20032;-92
2022/09/21 10:34:58;;;;;;;4.68;1.55;;;13.30;99.90;;;;;;6173761;23;20005;-90
2022/09/21 10:37:29;;;;;;;11.15;1.80;;;13.40;99.90;;;;;;6178164;23;20469;-91
2022/09/21 10:39:56;;;;;;;11.45;1.50;;;13.50;99.90;;;;;;6177849;23;19997;-93
2022/09/21 10:42:22;;;;;;;7.07;1.70;;;13.60;99.90;;;;;;6177866;23;20021;-92
2022/09/21 10:45:15;;;;;;;9.20;1.35;;;13.60;99.90;;;;;;6177494;23;20012;-91
2022/09/21 10:47:50;;;;;;;4.80;1.67;;;13.70;99.90;;;;;;6177919;23;20489;-86
2022/09/21 10:50:41;;;;;;;18.02;2.45;;;13.60;99.90;;;;;;6177141;23;20008;-92
2022/09/21 10:53:18;;;;;;;11.88;1.35;;;13.60;99.90;;;;;;6179103;23;20429;-90
2022/09/21 10:55:55;;;;;;;5.70;1.50;;;13.60;99.90;;;;;;6178766;23;20434;-92
2022/09/21 10:58:20;;;;;;;5.68;1.83;;;13.60;99.90;;;;;;6179309;23;20009;-92
2022/09/21 11:00:50;;;;;;;3.85;1.05;;;13.50;99.90;;;;;;6180326;23;20326;-93
2022/09/21 11:03:45;;;;;;;6.53;1.98;;;13.50;99.90;;;;;;6179319;23;19997;-92
2022/09/21 11:06:23;;;;;;;9.63;1.80;;;13.50;99.90;;;;;;6180274;23;20001;-91
2022/09/21 11:09:04;;;;;;;13.95;1.73;;;13.50;99.90;;;;;;6177328;23;20077;-91
2022/09/21 11:11:54;;;;;;;11.88;1.98;;;13.60;99.90;;;;;;6179948;23;20005;-91
2022/09/21 11:14:33;;;;;;;5.93;1.50;;;13.70;99.90;;;;;;6179180;23;20005;-87
2022/09/21 11:17:14;;;;;;;4.00;1.00;;;13.80;99.90;;;;;;6179836;23;20035;-93
2022/09/21 11:19:46;;;;;;;3.72;1.13;;;13.90;99.90;;;;;;6178676;23;20032;-93
2022/09/21 11:22:30;;;;;;;11.65;1.67;;;14.00;99.90;;;;;;6180038;23;20001;-92
2022/09/21 11:25:08;;;;;;;8.07;1.70;;;14.00;99.90;;;;;;6178566;23;20008;-90
2022/09/21 11:27:38;;;;;;;13.25;3.45;;;14.00;99.90;;;;;;6179955;23;20002;-92
2022/09/21 11:30:11;;;;;;;9.23;1.50;;;14.00;99.90;;;;;;6179027;23;20050;-92
2022/09/21 11:32:54;;;;;;;12.73;1.90;;;14.00;99.90;;;;;;6180055;23;20016;-88
2022/09/21 11:35:40;;;;;;;5.22;1.70;;;14.00;99.90;;;;;;6179673;23;20084;-89
2022/09/21 11:38:31;;;;;;;6.20;1.88;;;13.90;99.90;;;;;;6177356;23;20008;-90
2022/09/21 11:41:23;;;;;;;7.30;1.80;;;13.90;99.90;;;;;;6179805;23;20005;-93
2022/09/21 11:44:17;;;;;;;5.50;0.90;;;13.80;99.90;;;;;;6179025;23;20017;-91
2022/09/21 11:47:06;;;;;;;7.35;1.40;;;13.80;99.90;;;;;;6179175;23;20005;-93
2022/09/21 11:49:32;;;;;;;7.53;1.55;;;13.70;99.90;;;;;;6178976;23;20318;-91
2022/09/21 11:52:21;;;;;;;7.03;1.35;;;13.70;99.90;;;;;;6179860;23;20009;-92
2022/09/21 11:54:59;;;;;;;6.20;1.13;;;13.70;99.90;;;;;;6179171;23;20069;-89
2022/09/21 11:58:17;;;;;;;6.60;1.45;;;13.80;99.90;;;;;;6179080;23;20029;-92
2022/09/21 12:01:13;;;;;;;3.38;1.00;;;13.70;99.90;;;;;;6241105;22;20000;-93
2022/09/21 12:04:02;;;;;;;5.22;1.77;;;13.70;99.90;;;;;;6240624;23;19996;-93
2022/09/21 12:07:08;;;;;;;5.50;1.30;;;13.70;99.90;;;;;;6189809;23;20005;-92
2022/09/21 12:09:58;;;;;;;5.50;1.48;;;13.80;99.90;;;;;;6179303;23;20028;-92
2022/09/21 12:13:02;;;;;;;3.60;1.13;;;14.00;99.90;;;;;;6180440;23;20314;-91
2022/09/21 12:15:27;;;;;;;2.08;1.10;;;14.10;99.90;;;;;;6176336;22;20005;-91
2022/09/21 12:18:03;;;;;;;8.05;1.05;;;14.20;99.90;;;;;;6176955;23;20005;-90
2022/09/21 12:20:35;;;;;;;;;;;14.40;99.90;;;;;;6176794;23;20518;-92
2022/09/21 12:23:14;;;;;;;2.53;1.48;;;14.50;99.90;;;;;;6178146;23;20463;-92
2022/09/21 12:25:45;;;;;;;7.13;1.70;;;14.60;99.90;;;;;;6179277;23;20078;-91
2022/09/21 12:28:19;;;;;;;8.77;2.08;;;14.60;99.90;;;;;;6178126;23;20342;-92
2022/09/21 12:30:51;;;;;;;5.45;1.15;;;14.60;99.90;;;;;;6177022;23;20009;-90
2022/09/21 12:33:44;;;;;;;4.25;1.10;;;14.70;99.90;;;;;;6175662;23;20652;-89
2022/09/21 12:36:17;;;;;;;7.97;1.85;;;14.80;99.90;;;;;;6177019;23;20375;-91
2022/09/21 12:39:00;;;;;;;6.68;1.48;;;14.90;99.90;;;;;;6176305;23;20005;-92
2022/09/21 12:41:41;;;;;;;2.85;1.02;;;15.00;99.90;;;;;;6176091;23;20001;-93
2022/09/21 12:44:23;;;;;;;5.65;1.50;;;15.20;99.90;;;;;;6178027;23;20013;-90
2022/09/21 12:47:10;;;;;;;4.53;1.10;;;15.40;99.90;;;;;;6176964;23;20080;-91
2022/09/21 12:49:46;;;;;;;3.97;0.90;;;15.40;99.90;;;;;;6175053;23;20009;-88
2022/09/21 12:52:22;;;;;;;1.65;0.70;;;15.50;99.90;;;;;;6175607;23;20005;-90
2022/09/21 12:55:11;;;;;;;3.58;1.20;;;15.60;99.90;;;;;;6177129;23;20005;-90
2022/09/21 12:58:07;;;;;;;7.45;1.35;;;15.60;99.90;;;;;;6178312;23;20029;-89
2022/09/21 13:01:05;;;;;;;5.45;1.30;;;15.60;99.90;;;;;;6178951;23;20371;-91
2022/09/21 13:03:53;;;;;;;7.18;1.02;;;15.60;99.90;;;;;;6181217;23;20008;-91
2022/09/21 13:06:52;;;;;;;6.25;1.27;;;15.70;99.90;;;;;;6178584;23;20005;-88
2022/09/21 13:09:19;;;;;;;5.50;0.90;;;15.70;99.90;;;;;;6177471;23;19997;-91
2022/09/21 13:11:59;;;;;;;5.10;0.93;;;15.70;99.90;;;;;;6178131;23;20017;-89
2022/09/21 13:14:28;;;;;;;8.23;0.93;;;15.70;99.90;;;;;;6177719;23;20005;-89
2022/09/21 13:16:59;;;;;;;4.47;0.90;;;15.70;99.90;;;;;;6178308;22;20012;-90
2022/09/21 13:19:27;;;;;;;4.07;1.20;;;15.70;99.90;;;;;;6177069;23;20001;-91
2022/09/21 13:22:14;;;;;;;1.75;0.90;;;15.70;99.90;;;;;;6178928;23;20001;-90
2022/09/21 13:24:43;;;;;;;3.88;0.80;;;15.70;99.90;;;;;;6178200;23;20470;-92